sensor_id;sensor_type;location;lat;lon;timestamp;P1;durP1;ratioP1;P2;durP2;ratioP2
20709;SDS011;10516;51.518;9.864;2023-05-27T00:00:22;25.08;;;8.63;;
20709;SDS011;10516;51.518;9.864;2023-05-27T00:02:48;29.15;;;8.57;;
20709;SDS011;10516;51.518;9.864;2023-05-27T00:05:13;24.13;;;8.05;;
20709;SDS011;10516;51.518;9.864;2023-05-27T00:07:39;22.10;;;7.85;;
20709;SDS011;10516;51.518;9.864;2023-05-27T00:10:04;22.15;;;9.65;;
20709;SDS011;10516;51.518;9.864;2023-05-27T00:12:30;29.58;;;9.77;;
20709;SDS011;10516;51.518;9.864;2023-05-27T00:14:55;28.40;;;8.57;;
20709;SDS011;10516;51.518;9.864;2023-05-27T00:17:21;14.65;;;7.13;;
20709;SDS011;10516;51.518;9.864;2023-05-27T00:19:46;22.33;;;8.77;;
20709;SDS011;10516;51.518;9.864;2023-05-27T00:22:14;27.23;;;8.27;;
20709;SDS011;10516;51.518;9.864;2023-05-27T00:24:40;40.83;;;10.90;;
20709;SDS011;10516;51.518;9.864;2023-05-27T00:27:06;30.17;;;9.40;;
20709;SDS011;10516;51.518;9.864;2023-05-27T00:29:32;31.27;;;8.73;;
20709;SDS011;10516;51.518;9.864;2023-05-27T00:32:02;30.17;;;9.50;;
20709;SDS011;10516;51.518;9.864;2023-05-27T00:34:28;31.83;;;9.93;;
20709;SDS011;10516;51.518;9.864;2023-05-27T00:36:54;19.33;;;8.02;;
20709;SDS011;10516;51.518;9.864;2023-05-27T00:39:19;21.27;;;8.90;;
20709;SDS011;10516;51.518;9.864;2023-05-27T00:41:47;26.20;;;9.20;;
20709;SDS011;10516;51.518;9.864;2023-05-27T00:44:15;23.33;;;9.60;;
20709;SDS011;10516;51.518;9.864;2023-05-27T00:46:41;20.75;;;8.35;;
20709;SDS011;10516;51.518;9.864;2023-05-27T00:49:07;27.02;;;9.90;;
20709;SDS011;10516;51.518;9.864;2023-05-27T00:51:32;20.08;;;8.55;;
20709;SDS011;10516;51.518;9.864;2023-05-27T00:53:58;22.98;;;8.80;;
20709;SDS011;10516;51.518;9.864;2023-05-27T00:56:23;18.40;;;8.07;;
20709;SDS011;10516;51.518;9.864;2023-05-27T00:58:50;25.38;;;8.80;;
20709;SDS011;10516;51.518;9.864;2023-05-27T01:01:16;24.00;;;9.40;;
20709;SDS011;10516;51.518;9.864;2023-05-27T01:03:42;19.95;;;8.05;;
20709;SDS011;10516;51.518;9.864;2023-05-27T01:06:14;20.25;;;7.65;;
20709;SDS011;10516;51.518;9.864;2023-05-27T01:08:59;28.23;;;9.02;;
20709;SDS011;10516;51.518;9.864;2023-05-27T01:11:43;24.27;;;8.90;;
20709;SDS011;10516;51.518;9.864;2023-05-27T01:14:14;27.98;;;8.90;;
20709;SDS011;10516;51.518;9.864;2023-05-27T01:16:41;31.02;;;9.27;;
20709;SDS011;10516;51.518;9.864;2023-05-27T01:19:15;21.50;;;8.95;;
20709;SDS011;10516;51.518;9.864;2023-05-27T01:21:52;28.23;;;9.80;;
20709;SDS011;10516;51.518;9.864;2023-05-27T01:24:19;23.92;;;9.38;;
20709;SDS011;10516;51.518;9.864;2023-05-27T01:26:45;24.58;;;9.02;;
20709;SDS011;10516;51.518;9.864;2023-05-27T01:29:10;24.23;;;9.02;;
20709;SDS011;10516;51.518;9.864;2023-05-27T01:31:43;29.38;;;9.02;;
20709;SDS011;10516;51.518;9.864;2023-05-27T01:34:17;18.58;;;7.57;;
20709;SDS011;10516;51.518;9.864;2023-05-27T01:36:51;34.63;;;9.65;;
20709;SDS011;10516;51.518;9.864;2023-05-27T01:39:21;31.55;;;10.07;;
20709;SDS011;10516;51.518;9.864;2023-05-27T01:41:48;25.60;;;9.75;;
20709;SDS011;10516;51.518;9.864;2023-05-27T01:44:15;19.75;;;10.57;;
20709;SDS011;10516;51.518;9.864;2023-05-27T01:46:42;28.38;;;9.32;;
20709;SDS011;10516;51.518;9.864;2023-05-27T01:49:08;27.05;;;10.50;;
20709;SDS011;10516;51.518;9.864;2023-05-27T01:51:34;22.75;;;9.90;;
20709;SDS011;10516;51.518;9.864;2023-05-27T01:54:00;36.50;;;10.52;;
20709;SDS011;10516;51.518;9.864;2023-05-27T01:56:25;23.85;;;9.45;;
20709;SDS011;10516;51.518;9.864;2023-05-27T01:58:51;28.17;;;11.25;;
20709;SDS011;10516;51.518;9.864;2023-05-27T02:01:16;27.50;;;9.73;;
20709;SDS011;10516;51.518;9.864;2023-05-27T02:03:42;25.17;;;9.95;;
20709;SDS011;10516;51.518;9.864;2023-05-27T02:06:07;29.40;;;9.80;;
20709;SDS011;10516;51.518;9.864;2023-05-27T02:08:32;36.20;;;10.73;;
20709;SDS011;10516;51.518;9.864;2023-05-27T02:10:59;24.98;;;9.05;;
20709;SDS011;10516;51.518;9.864;2023-05-27T02:13:24;32.55;;;10.75;;
20709;SDS011;10516;51.518;9.864;2023-05-27T02:15:50;36.25;;;11.88;;
20709;SDS011;10516;51.518;9.864;2023-05-27T02:18:15;23.70;;;9.82;;
20709;SDS011;10516;51.518;9.864;2023-05-27T02:20:40;28.92;;;9.38;;
20709;SDS011;10516;51.518;9.864;2023-05-27T02:23:06;26.58;;;10.73;;
20709;SDS011;10516;51.518;9.864;2023-05-27T02:25:32;28.27;;;9.10;;
20709;SDS011;10516;51.518;9.864;2023-05-27T02:27:58;26.38;;;9.70;;
20709;SDS011;10516;51.518;9.864;2023-05-27T02:30:27;24.95;;;9.10;;
20709;SDS011;10516;51.518;9.864;2023-05-27T02:32:54;42.90;;;11.25;;
20709;SDS011;10516;51.518;9.864;2023-05-27T02:35:20;16.33;;;8.73;;
20709;SDS011;10516;51.518;9.864;2023-05-27T02:37:46;32.53;;;10.95;;
20709;SDS011;10516;51.518;9.864;2023-05-27T02:40:11;23.05;;;9.90;;
20709;SDS011;10516;51.518;9.864;2023-05-27T02:42:37;20.58;;;7.78;;
20709;SDS011;10516;51.518;9.864;2023-05-27T02:45:02;27.50;;;10.25;;
20709;SDS011;10516;51.518;9.864;2023-05-27T02:47:28;33.78;;;10.05;;
20709;SDS011;10516;51.518;9.864;2023-05-27T02:49:53;29.15;;;10.82;;
20709;SDS011;10516;51.518;9.864;2023-05-27T02:52:19;19.33;;;7.82;;
20709;SDS011;10516;51.518;9.864;2023-05-27T02:54:44;24.70;;;9.25;;
20709;SDS011;10516;51.518;9.864;2023-05-27T02:57:09;25.90;;;8.77;;
20709;SDS011;10516;51.518;9.864;2023-05-27T02:59:35;28.50;;;8.05;;
20709;SDS011;10516;51.518;9.864;2023-05-27T03:02:00;20.08;;;9.13;;
20709;SDS011;10516;51.518;9.864;2023-05-27T03:04:26;28.17;;;10.18;;
20709;SDS011;10516;51.518;9.864;2023-05-27T03:06:51;20.08;;;7.50;;
20709;SDS011;10516;51.518;9.864;2023-05-27T03:09:16;19.70;;;7.95;;
20709;SDS011;10516;51.518;9.864;2023-05-27T03:11:42;20.23;;;7.40;;
20709;SDS011;10516;51.518;9.864;2023-05-27T03:14:07;15.45;;;6.47;;
20709;SDS011;10516;51.518;9.864;2023-05-27T03:16:33;17.27;;;6.80;;
20709;SDS011;10516;51.518;9.864;2023-05-27T03:18:59;25.10;;;8.35;;
20709;SDS011;10516;51.518;9.864;2023-05-27T03:21:24;15.75;;;6.55;;
20709;SDS011;10516;51.518;9.864;2023-05-27T03:23:49;20.55;;;7.97;;
20709;SDS011;10516;51.518;9.864;2023-05-27T03:26:15;24.55;;;8.68;;
20709;SDS011;10516;51.518;9.864;2023-05-27T03:28:40;18.20;;;6.40;;
20709;SDS011;10516;51.518;9.864;2023-05-27T03:31:05;15.70;;;8.90;;
20709;SDS011;10516;51.518;9.864;2023-05-27T03:33:31;22.50;;;6.75;;
20709;SDS011;10516;51.518;9.864;2023-05-27T03:35:56;15.48;;;6.35;;
20709;SDS011;10516;51.518;9.864;2023-05-27T03:38:22;22.52;;;7.35;;
20709;SDS011;10516;51.518;9.864;2023-05-27T03:40:47;19.42;;;7.63;;
20709;SDS011;10516;51.518;9.864;2023-05-27T03:43:13;23.52;;;9.32;;
20709;SDS011;10516;51.518;9.864;2023-05-27T03:45:38;18.42;;;7.70;;
20709;SDS011;10516;51.518;9.864;2023-05-27T03:48:04;24.33;;;8.57;;
20709;SDS011;10516;51.518;9.864;2023-05-27T03:50:31;14.32;;;6.75;;
20709;SDS011;10516;51.518;9.864;2023-05-27T03:52:58;22.45;;;7.78;;
20709;SDS011;10516;51.518;9.864;2023-05-27T03:55:23;15.75;;;7.00;;
20709;SDS011;10516;51.518;9.864;2023-05-27T03:57:48;14.35;;;6.85;;
20709;SDS011;10516;51.518;9.864;2023-05-27T04:00:14;20.90;;;8.75;;
20709;SDS011;10516;51.518;9.864;2023-05-27T04:02:42;15.20;;;6.78;;
20709;SDS011;10516;51.518;9.864;2023-05-27T04:05:08;14.25;;;6.72;;
20709;SDS011;10516;51.518;9.864;2023-05-27T04:07:33;21.38;;;7.25;;
20709;SDS011;10516;51.518;9.864;2023-05-27T04:09:59;14.13;;;7.07;;
20709;SDS011;10516;51.518;9.864;2023-05-27T04:12:24;26.45;;;9.38;;
20709;SDS011;10516;51.518;9.864;2023-05-27T04:14:50;24.98;;;8.98;;
20709;SDS011;10516;51.518;9.864;2023-05-27T04:17:15;25.88;;;10.23;;
20709;SDS011;10516;51.518;9.864;2023-05-27T04:19:42;33.60;;;11.30;;
20709;SDS011;10516;51.518;9.864;2023-05-27T04:22:08;20.33;;;6.70;;
20709;SDS011;10516;51.518;9.864;2023-05-27T04:24:33;22.05;;;10.07;;
20709;SDS011;10516;51.518;9.864;2023-05-27T04:26:58;19.20;;;9.95;;
20709;SDS011;10516;51.518;9.864;2023-05-27T04:29:24;33.47;;;10.77;;
20709;SDS011;10516;51.518;9.864;2023-05-27T04:31:49;47.33;;;10.80;;
20709;SDS011;10516;51.518;9.864;2023-05-27T04:34:15;26.75;;;10.63;;
20709;SDS011;10516;51.518;9.864;2023-05-27T04:36:41;31.55;;;11.88;;
20709;SDS011;10516;51.518;9.864;2023-05-27T04:39:07;34.50;;;10.80;;
20709;SDS011;10516;51.518;9.864;2023-05-27T04:41:32;39.58;;;12.63;;
20709;SDS011;10516;51.518;9.864;2023-05-27T04:43:58;26.33;;;10.43;;
20709;SDS011;10516;51.518;9.864;2023-05-27T04:46:25;32.22;;;12.23;;
20709;SDS011;10516;51.518;9.864;2023-05-27T04:48:54;32.33;;;11.38;;
20709;SDS011;10516;51.518;9.864;2023-05-27T04:51:20;38.15;;;11.73;;
20709;SDS011;10516;51.518;9.864;2023-05-27T04:53:46;34.40;;;12.02;;
20709;SDS011;10516;51.518;9.864;2023-05-27T04:56:15;36.28;;;13.13;;
20709;SDS011;10516;51.518;9.864;2023-05-27T04:58:42;32.67;;;11.43;;
20709;SDS011;10516;51.518;9.864;2023-05-27T05:01:14;29.23;;;11.65;;
20709;SDS011;10516;51.518;9.864;2023-05-27T05:03:43;23.73;;;10.68;;
20709;SDS011;10516;51.518;9.864;2023-05-27T05:06:18;29.75;;;12.48;;
20709;SDS011;10516;51.518;9.864;2023-05-27T05:08:44;26.58;;;12.80;;
20709;SDS011;10516;51.518;9.864;2023-05-27T05:11:09;34.42;;;12.68;;
20709;SDS011;10516;51.518;9.864;2023-05-27T05:13:35;33.33;;;12.68;;
20709;SDS011;10516;51.518;9.864;2023-05-27T05:16:00;23.73;;;10.15;;
20709;SDS011;10516;51.518;9.864;2023-05-27T05:18:25;37.22;;;12.63;;
20709;SDS011;10516;51.518;9.864;2023-05-27T05:20:51;40.85;;;12.65;;
20709;SDS011;10516;51.518;9.864;2023-05-27T05:23:16;35.25;;;13.02;;
20709;SDS011;10516;51.518;9.864;2023-05-27T05:25:41;44.92;;;14.13;;
20709;SDS011;10516;51.518;9.864;2023-05-27T05:28:07;42.22;;;16.70;;
20709;SDS011;10516;51.518;9.864;2023-05-27T05:30:32;19.65;;;8.93;;
20709;SDS011;10516;51.518;9.864;2023-05-27T05:32:58;25.42;;;11.07;;
20709;SDS011;10516;51.518;9.864;2023-05-27T05:35:23;35.60;;;12.02;;
20709;SDS011;10516;51.518;9.864;2023-05-27T05:37:49;35.30;;;13.38;;
20709;SDS011;10516;51.518;9.864;2023-05-27T05:40:14;48.03;;;14.52;;
20709;SDS011;10516;51.518;9.864;2023-05-27T05:42:40;25.85;;;12.65;;
20709;SDS011;10516;51.518;9.864;2023-05-27T05:45:05;24.50;;;12.23;;
20709;SDS011;10516;51.518;9.864;2023-05-27T05:47:31;30.17;;;13.18;;
20709;SDS011;10516;51.518;9.864;2023-05-27T05:49:57;31.58;;;11.23;;
20709;SDS011;10516;51.518;9.864;2023-05-27T05:52:22;30.83;;;12.45;;
20709;SDS011;10516;51.518;9.864;2023-05-27T05:54:48;36.85;;;12.60;;
20709;SDS011;10516;51.518;9.864;2023-05-27T05:57:13;34.08;;;12.68;;
20709;SDS011;10516;51.518;9.864;2023-05-27T05:59:38;29.95;;;12.32;;
20709;SDS011;10516;51.518;9.864;2023-05-27T06:02:04;31.15;;;12.07;;
20709;SDS011;10516;51.518;9.864;2023-05-27T06:04:30;28.02;;;9.90;;
20709;SDS011;10516;51.518;9.864;2023-05-27T06:06:55;33.20;;;13.45;;
20709;SDS011;10516;51.518;9.864;2023-05-27T06:09:21;30.83;;;12.07;;
20709;SDS011;10516;51.518;9.864;2023-05-27T06:11:48;27.50;;;13.02;;
20709;SDS011;10516;51.518;9.864;2023-05-27T06:14:13;21.25;;;9.70;;
20709;SDS011;10516;51.518;9.864;2023-05-27T06:16:38;34.42;;;12.25;;
20709;SDS011;10516;51.518;9.864;2023-05-27T06:19:04;30.08;;;12.95;;
20709;SDS011;10516;51.518;9.864;2023-05-27T06:21:31;43.33;;;13.98;;
20709;SDS011;10516;51.518;9.864;2023-05-27T06:23:57;18.65;;;8.57;;
20709;SDS011;10516;51.518;9.864;2023-05-27T06:26:23;32.08;;;12.30;;
20709;SDS011;10516;51.518;9.864;2023-05-27T06:28:49;20.45;;;8.45;;
20709;SDS011;10516;51.518;9.864;2023-05-27T06:31:14;29.23;;;12.80;;
20709;SDS011;10516;51.518;9.864;2023-05-27T06:33:42;28.77;;;11.60;;
20709;SDS011;10516;51.518;9.864;2023-05-27T06:36:08;36.47;;;12.68;;
20709;SDS011;10516;51.518;9.864;2023-05-27T06:38:33;21.23;;;8.43;;
20709;SDS011;10516;51.518;9.864;2023-05-27T06:40:58;23.48;;;9.05;;
20709;SDS011;10516;51.518;9.864;2023-05-27T06:43:24;27.60;;;12.25;;
20709;SDS011;10516;51.518;9.864;2023-05-27T06:45:49;24.83;;;12.23;;
20709;SDS011;10516;51.518;9.864;2023-05-27T06:48:15;26.00;;;11.73;;
20709;SDS011;10516;51.518;9.864;2023-05-27T06:50:40;26.67;;;11.63;;
20709;SDS011;10516;51.518;9.864;2023-05-27T06:53:05;28.05;;;10.48;;
20709;SDS011;10516;51.518;9.864;2023-05-27T06:55:31;25.73;;;11.48;;
20709;SDS011;10516;51.518;9.864;2023-05-27T06:57:56;24.17;;;7.93;;
20709;SDS011;10516;51.518;9.864;2023-05-27T07:00:21;24.75;;;11.73;;
20709;SDS011;10516;51.518;9.864;2023-05-27T07:02:47;27.95;;;10.73;;
20709;SDS011;10516;51.518;9.864;2023-05-27T07:05:12;27.02;;;11.50;;
20709;SDS011;10516;51.518;9.864;2023-05-27T07:07:38;20.48;;;10.75;;
20709;SDS011;10516;51.518;9.864;2023-05-27T07:10:03;31.88;;;11.52;;
20709;SDS011;10516;51.518;9.864;2023-05-27T07:12:29;18.55;;;7.80;;
20709;SDS011;10516;51.518;9.864;2023-05-27T07:14:54;26.58;;;10.90;;
20709;SDS011;10516;51.518;9.864;2023-05-27T07:17:19;28.05;;;10.40;;
20709;SDS011;10516;51.518;9.864;2023-05-27T07:19:45;30.40;;;12.02;;
20709;SDS011;10516;51.518;9.864;2023-05-27T07:22:10;25.83;;;10.05;;
20709;SDS011;10516;51.518;9.864;2023-05-27T07:24:35;28.25;;;11.15;;
20709;SDS011;10516;51.518;9.864;2023-05-27T07:27:01;24.00;;;9.40;;
20709;SDS011;10516;51.518;9.864;2023-05-27T07:29:26;24.33;;;9.80;;
20709;SDS011;10516;51.518;9.864;2023-05-27T07:31:52;22.90;;;9.93;;
20709;SDS011;10516;51.518;9.864;2023-05-27T07:34:18;29.80;;;10.00;;
20709;SDS011;10516;51.518;9.864;2023-05-27T07:36:43;26.27;;;10.13;;
20709;SDS011;10516;51.518;9.864;2023-05-27T07:39:08;26.65;;;10.27;;
20709;SDS011;10516;51.518;9.864;2023-05-27T07:41:34;19.13;;;7.85;;
20709;SDS011;10516;51.518;9.864;2023-05-27T07:43:59;23.58;;;9.52;;
20709;SDS011;10516;51.518;9.864;2023-05-27T07:46:25;15.90;;;6.65;;
20709;SDS011;10516;51.518;9.864;2023-05-27T07:48:50;24.70;;;9.73;;
20709;SDS011;10516;51.518;9.864;2023-05-27T07:51:15;26.10;;;9.57;;
20709;SDS011;10516;51.518;9.864;2023-05-27T07:53:41;22.00;;;8.43;;
20709;SDS011;10516;51.518;9.864;2023-05-27T07:56:06;21.45;;;7.30;;
20709;SDS011;10516;51.518;9.864;2023-05-27T07:58:32;22.13;;;9.65;;
20709;SDS011;10516;51.518;9.864;2023-05-27T08:00:57;15.75;;;7.65;;
20709;SDS011;10516;51.518;9.864;2023-05-27T08:03:22;28.38;;;10.40;;
20709;SDS011;10516;51.518;9.864;2023-05-27T08:05:48;19.23;;;8.68;;
20709;SDS011;10516;51.518;9.864;2023-05-27T08:08:13;24.80;;;8.60;;
20709;SDS011;10516;51.518;9.864;2023-05-27T08:10:39;21.40;;;8.40;;
20709;SDS011;10516;51.518;9.864;2023-05-27T08:13:04;26.60;;;10.20;;
20709;SDS011;10516;51.518;9.864;2023-05-27T08:15:30;26.63;;;8.70;;
20709;SDS011;10516;51.518;9.864;2023-05-27T08:17:55;19.77;;;7.40;;
20709;SDS011;10516;51.518;9.864;2023-05-27T08:20:21;18.42;;;8.45;;
20709;SDS011;10516;51.518;9.864;2023-05-27T08:22:46;25.17;;;9.13;;
20709;SDS011;10516;51.518;9.864;2023-05-27T08:25:11;22.98;;;7.63;;
20709;SDS011;10516;51.518;9.864;2023-05-27T08:30:15;26.10;;;8.18;;
20709;SDS011;10516;51.518;9.864;2023-05-27T08:32:41;19.20;;;7.18;;
20709;SDS011;10516;51.518;9.864;2023-05-27T08:35:07;19.35;;;8.05;;
20709;SDS011;10516;51.518;9.864;2023-05-27T08:37:33;15.43;;;6.65;;
20709;SDS011;10516;51.518;9.864;2023-05-27T08:39:59;23.77;;;8.55;;
20709;SDS011;10516;51.518;9.864;2023-05-27T08:42:25;28.55;;;8.80;;
20709;SDS011;10516;51.518;9.864;2023-05-27T08:44:51;20.92;;;8.05;;
20709;SDS011;10516;51.518;9.864;2023-05-27T08:47:16;18.88;;;6.60;;
20709;SDS011;10516;51.518;9.864;2023-05-27T08:49:42;20.63;;;6.93;;
20709;SDS011;10516;51.518;9.864;2023-05-27T08:52:09;26.13;;;7.50;;
20709;SDS011;10516;51.518;9.864;2023-05-27T08:54:37;24.40;;;6.93;;
20709;SDS011;10516;51.518;9.864;2023-05-27T08:57:04;18.60;;;6.15;;
20709;SDS011;10516;51.518;9.864;2023-05-27T08:59:32;15.15;;;6.22;;
20709;SDS011;10516;51.518;9.864;2023-05-27T09:01:59;18.40;;;6.68;;
20709;SDS011;10516;51.518;9.864;2023-05-27T09:04:25;13.85;;;6.45;;
20709;SDS011;10516;51.518;9.864;2023-05-27T09:06:51;13.50;;;6.53;;
20709;SDS011;10516;51.518;9.864;2023-05-27T09:09:17;26.98;;;7.97;;
20709;SDS011;10516;51.518;9.864;2023-05-27T09:11:43;18.48;;;6.63;;
20709;SDS011;10516;51.518;9.864;2023-05-27T09:14:31;20.08;;;8.65;;
20709;SDS011;10516;51.518;9.864;2023-05-27T09:16:55;15.25;;;6.90;;
20709;SDS011;10516;51.518;9.864;2023-05-27T09:19:21;22.65;;;7.57;;
20709;SDS011;10516;51.518;9.864;2023-05-27T09:21:48;17.85;;;7.03;;
20709;SDS011;10516;51.518;9.864;2023-05-27T09:24:17;19.35;;;6.93;;
20709;SDS011;10516;51.518;9.864;2023-05-27T09:26:42;22.52;;;6.43;;
20709;SDS011;10516;51.518;9.864;2023-05-27T09:29:08;13.93;;;5.50;;
20709;SDS011;10516;51.518;9.864;2023-05-27T09:31:39;21.92;;;7.30;;
20709;SDS011;10516;51.518;9.864;2023-05-27T09:34:12;22.95;;;7.50;;
20709;SDS011;10516;51.518;9.864;2023-05-27T09:36:45;12.52;;;6.53;;
20709;SDS011;10516;51.518;9.864;2023-05-27T09:39:15;16.38;;;6.25;;
20709;SDS011;10516;51.518;9.864;2023-05-27T09:41:41;17.13;;;5.93;;
20709;SDS011;10516;51.518;9.864;2023-05-27T09:44:07;13.00;;;6.80;;
20709;SDS011;10516;51.518;9.864;2023-05-27T09:46:33;17.55;;;6.70;;
20709;SDS011;10516;51.518;9.864;2023-05-27T09:49:00;19.95;;;7.68;;
20709;SDS011;10516;51.518;9.864;2023-05-27T09:51:27;18.67;;;6.53;;
20709;SDS011;10516;51.518;9.864;2023-05-27T09:53:53;11.68;;;5.75;;
20709;SDS011;10516;51.518;9.864;2023-05-27T09:56:23;18.25;;;6.32;;
20709;SDS011;10516;51.518;9.864;2023-05-27T09:58:48;10.18;;;5.63;;
20709;SDS011;10516;51.518;9.864;2023-05-27T10:01:14;14.65;;;4.93;;
20709;SDS011;10516;51.518;9.864;2023-05-27T10:03:42;15.50;;;6.13;;
20709;SDS011;10516;51.518;9.864;2023-05-27T10:06:09;18.13;;;6.05;;
20709;SDS011;10516;51.518;9.864;2023-05-27T10:08:38;18.60;;;5.93;;
20709;SDS011;10516;51.518;9.864;2023-05-27T10:11:03;24.60;;;6.75;;
20709;SDS011;10516;51.518;9.864;2023-05-27T10:13:29;21.05;;;5.85;;
20709;SDS011;10516;51.518;9.864;2023-05-27T10:15:55;19.60;;;7.25;;
20709;SDS011;10516;51.518;9.864;2023-05-27T10:18:27;18.00;;;6.78;;
20709;SDS011;10516;51.518;9.864;2023-05-27T10:20:54;19.40;;;7.55;;
20709;SDS011;10516;51.518;9.864;2023-05-27T10:23:23;16.40;;;5.68;;
20709;SDS011;10516;51.518;9.864;2023-05-27T10:25:57;22.75;;;6.55;;
20709;SDS011;10516;51.518;9.864;2023-05-27T10:28:30;16.58;;;6.13;;
20709;SDS011;10516;51.518;9.864;2023-05-27T10:31:14;17.33;;;5.97;;
20709;SDS011;10516;51.518;9.864;2023-05-27T10:33:45;17.40;;;6.18;;
20709;SDS011;10516;51.518;9.864;2023-05-27T10:36:16;11.70;;;4.95;;
20709;SDS011;10516;51.518;9.864;2023-05-27T10:38:56;20.05;;;6.25;;
20709;SDS011;10516;51.518;9.864;2023-05-27T10:41:21;18.75;;;6.22;;
20709;SDS011;10516;51.518;9.864;2023-05-27T10:43:57;10.75;;;5.05;;
20709;SDS011;10516;51.518;9.864;2023-05-27T10:46:23;13.52;;;5.25;;
20709;SDS011;10516;51.518;9.864;2023-05-27T10:48:48;13.52;;;5.82;;
20709;SDS011;10516;51.518;9.864;2023-05-27T10:51:14;15.60;;;5.40;;
20709;SDS011;10516;51.518;9.864;2023-05-27T10:53:40;15.82;;;6.95;;
20709;SDS011;10516;51.518;9.864;2023-05-27T10:56:05;11.00;;;5.90;;
20709;SDS011;10516;51.518;9.864;2023-05-27T10:58:35;16.77;;;5.72;;
20709;SDS011;10516;51.518;9.864;2023-05-27T11:01:08;16.02;;;7.22;;
20709;SDS011;10516;51.518;9.864;2023-05-27T11:03:45;15.13;;;6.63;;
20709;SDS011;10516;51.518;9.864;2023-05-27T11:06:13;14.43;;;5.60;;
20709;SDS011;10516;51.518;9.864;2023-05-27T11:08:40;10.82;;;5.47;;
20709;SDS011;10516;51.518;9.864;2023-05-27T11:11:06;9.30;;;4.60;;
20709;SDS011;10516;51.518;9.864;2023-05-27T11:16:04;11.52;;;4.95;;
20709;SDS011;10516;51.518;9.864;2023-05-27T11:18:48;18.05;;;5.93;;
20709;SDS011;10516;51.518;9.864;2023-05-27T11:21:14;10.52;;;5.28;;
20709;SDS011;10516;51.518;9.864;2023-05-27T11:23:47;11.77;;;5.75;;
20709;SDS011;10516;51.518;9.864;2023-05-27T11:28:49;10.63;;;5.15;;
20709;SDS011;10516;51.518;9.864;2023-05-27T11:31:19;13.27;;;4.95;;
20709;SDS011;10516;51.518;9.864;2023-05-27T11:33:46;14.00;;;5.55;;
20709;SDS011;10516;51.518;9.864;2023-05-27T11:36:14;14.75;;;5.70;;
20709;SDS011;10516;51.518;9.864;2023-05-27T11:41:12;22.27;;;5.75;;
20709;SDS011;10516;51.518;9.864;2023-05-27T11:43:48;13.05;;;5.55;;
20709;SDS011;10516;51.518;9.864;2023-05-27T11:46:14;13.20;;;5.75;;
20709;SDS011;10516;51.518;9.864;2023-05-27T11:48:40;10.95;;;4.78;;
20709;SDS011;10516;51.518;9.864;2023-05-27T11:51:06;15.45;;;5.18;;
20709;SDS011;10516;51.518;9.864;2023-05-27T11:53:31;11.38;;;5.88;;
20709;SDS011;10516;51.518;9.864;2023-05-27T11:55:57;9.05;;;4.80;;
20709;SDS011;10516;51.518;9.864;2023-05-27T11:58:22;10.93;;;5.22;;
20709;SDS011;10516;51.518;9.864;2023-05-27T12:00:47;8.35;;;4.70;;
20709;SDS011;10516;51.518;9.864;2023-05-27T12:03:13;8.60;;;5.20;;
20709;SDS011;10516;51.518;9.864;2023-05-27T12:05:38;12.98;;;5.35;;
20709;SDS011;10516;51.518;9.864;2023-05-27T12:08:03;10.23;;;5.55;;
20709;SDS011;10516;51.518;9.864;2023-05-27T12:10:30;10.90;;;5.72;;
20709;SDS011;10516;51.518;9.864;2023-05-27T12:13:02;15.43;;;6.07;;
20709;SDS011;10516;51.518;9.864;2023-05-27T12:15:31;15.60;;;5.25;;
20709;SDS011;10516;51.518;9.864;2023-05-27T12:17:57;11.52;;;4.82;;
20709;SDS011;10516;51.518;9.864;2023-05-27T12:20:22;10.95;;;5.38;;
20709;SDS011;10516;51.518;9.864;2023-05-27T12:22:52;12.68;;;5.07;;
20709;SDS011;10516;51.518;9.864;2023-05-27T12:25:18;9.00;;;5.05;;
20709;SDS011;10516;51.518;9.864;2023-05-27T12:27:43;9.32;;;4.60;;
20709;SDS011;10516;51.518;9.864;2023-05-27T12:30:09;10.68;;;5.50;;
20709;SDS011;10516;51.518;9.864;2023-05-27T12:32:35;11.52;;;5.05;;
20709;SDS011;10516;51.518;9.864;2023-05-27T12:35:00;12.93;;;5.10;;
20709;SDS011;10516;51.518;9.864;2023-05-27T12:37:26;10.98;;;4.90;;
20709;SDS011;10516;51.518;9.864;2023-05-27T12:39:52;13.32;;;5.25;;
20709;SDS011;10516;51.518;9.864;2023-05-27T12:42:18;12.30;;;5.05;;
20709;SDS011;10516;51.518;9.864;2023-05-27T12:44:44;10.10;;;4.80;;
20709;SDS011;10516;51.518;9.864;2023-05-27T12:47:09;10.75;;;5.30;;
20709;SDS011;10516;51.518;9.864;2023-05-27T12:49:35;9.25;;;5.25;;
20709;SDS011;10516;51.518;9.864;2023-05-27T12:52:01;8.05;;;4.82;;
20709;SDS011;10516;51.518;9.864;2023-05-27T12:54:28;8.07;;;4.75;;
20709;SDS011;10516;51.518;9.864;2023-05-27T12:56:53;14.77;;;5.07;;
20709;SDS011;10516;51.518;9.864;2023-05-27T12:59:19;11.57;;;4.60;;
20709;SDS011;10516;51.518;9.864;2023-05-27T13:01:45;12.88;;;5.45;;
20709;SDS011;10516;51.518;9.864;2023-05-27T13:04:10;8.65;;;4.53;;
20709;SDS011;10516;51.518;9.864;2023-05-27T13:06:36;12.63;;;5.30;;
20709;SDS011;10516;51.518;9.864;2023-05-27T13:09:02;12.38;;;5.00;;
20709;SDS011;10516;51.518;9.864;2023-05-27T13:11:27;9.82;;;4.63;;
20709;SDS011;10516;51.518;9.864;2023-05-27T13:13:53;9.52;;;4.38;;
20709;SDS011;10516;51.518;9.864;2023-05-27T13:16:18;14.25;;;5.15;;
20709;SDS011;10516;51.518;9.864;2023-05-27T13:18:43;9.30;;;4.72;;
20709;SDS011;10516;51.518;9.864;2023-05-27T13:21:09;10.38;;;5.13;;
20709;SDS011;10516;51.518;9.864;2023-05-27T13:23:34;10.38;;;4.80;;
20709;SDS011;10516;51.518;9.864;2023-05-27T13:26:00;16.42;;;5.03;;
20709;SDS011;10516;51.518;9.864;2023-05-27T13:28:25;8.43;;;4.68;;
20709;SDS011;10516;51.518;9.864;2023-05-27T13:30:51;15.30;;;5.35;;
20709;SDS011;10516;51.518;9.864;2023-05-27T13:33:16;11.93;;;4.32;;
20709;SDS011;10516;51.518;9.864;2023-05-27T13:35:41;15.07;;;6.47;;
20709;SDS011;10516;51.518;9.864;2023-05-27T13:38:07;8.88;;;4.18;;
20709;SDS011;10516;51.518;9.864;2023-05-27T13:40:37;8.77;;;4.68;;
20709;SDS011;10516;51.518;9.864;2023-05-27T13:43:02;7.75;;;4.57;;
20709;SDS011;10516;51.518;9.864;2023-05-27T13:45:28;8.63;;;4.70;;
20709;SDS011;10516;51.518;9.864;2023-05-27T13:47:53;8.68;;;4.22;;
20709;SDS011;10516;51.518;9.864;2023-05-27T13:50:19;10.02;;;5.30;;
20709;SDS011;10516;51.518;9.864;2023-05-27T13:52:44;10.07;;;4.30;;
20709;SDS011;10516;51.518;9.864;2023-05-27T13:55:10;11.27;;;4.43;;
20709;SDS011;10516;51.518;9.864;2023-05-27T13:57:36;11.63;;;5.55;;
20709;SDS011;10516;51.518;9.864;2023-05-27T14:00:02;10.40;;;4.90;;
20709;SDS011;10516;51.518;9.864;2023-05-27T14:02:28;8.35;;;4.45;;
20709;SDS011;10516;51.518;9.864;2023-05-27T14:04:53;8.75;;;4.63;;
20709;SDS011;10516;51.518;9.864;2023-05-27T14:07:19;9.20;;;5.10;;
20709;SDS011;10516;51.518;9.864;2023-05-27T17:08:52;11.55;;;7.30;;
20709;SDS011;10516;51.518;9.864;2023-05-27T17:11:21;29.80;;;23.02;;
20709;SDS011;10516;51.518;9.864;2023-05-27T17:13:47;21.77;;;17.00;;
20709;SDS011;10516;51.518;9.864;2023-05-27T17:16:12;12.90;;;7.05;;
20709;SDS011;10516;51.518;9.864;2023-05-27T17:18:37;9.85;;;6.97;;
20709;SDS011;10516;51.518;9.864;2023-05-27T17:21:03;21.33;;;17.92;;
20709;SDS011;10516;51.518;9.864;2023-05-27T17:23:28;13.93;;;8.20;;
20709;SDS011;10516;51.518;9.864;2023-05-27T17:25:54;20.83;;;15.38;;
20709;SDS011;10516;51.518;9.864;2023-05-27T17:28:19;23.17;;;18.00;;
20709;SDS011;10516;51.518;9.864;2023-05-27T17:30:44;67.38;;;59.92;;
20709;SDS011;10516;51.518;9.864;2023-05-27T17:33:10;21.83;;;14.05;;
20709;SDS011;10516;51.518;9.864;2023-05-27T17:35:35;34.65;;;23.88;;